Аэропорт
Иссык-Куль (UCFL)

 UCFL
ЗЦ Центральная Азия
Бишкек (UCFM)
Бишкек (UCFM)
 42.58830, 76.71330  / 5425 ft

 UCFL 161600Z 01004MPS 9999 NSC M02/M05 Q1019 R07/CLRD95
 UCFL 160737Z 1609/1618 14003G08MPS 9999 FEW030CB SCT100 BECMG 1613/1615 34003G08MPS
показать схемы



2019 © VATRUS division (Privacy Policy)